Absaraka, North Dakota
Current Conditions -  °F | °C
As of 2:53 PM on Sunday 21 Dec 2014 (Local Time) from KFAR Reporting Station
Haze Haze  
Wind Chill: 25°   Ceiling: 700
Heat Index: 34°   Visibility: 5mi
Dew Point: 30°   Wind: 13mph
Humidity: 85%   Direction: 140°SE
Pressure: 29.59"   Gusts: 25mph
Location:  46.98°N, 97.39°W
Report Text: KFAR 212053Z 14011G22KT 5SM BR OVC007 01/M01 A2959 RMK AO2 SLP033 T00111011 56025
Loading
Personal Weather Stations






























Interactive Weather Map New forecast layout! Learn more

10-Day Weather Forecast

Advertisements
Track Severe Weather on mobile